Time;durP1;ratioP1;P1;durP2;ratioP2;P2;SDS_P1;SDS_P2;PMS_P1;PMS_P2;Temp;Humidity;BMP_temperature;BMP_pressure;BME280_temperature;BME280_humidity;BME280_pressure;Samples;Min_cycle;Max_cycle;Signal;HPM_P1;HPM_P2
2023/02/07 00:02:14;;;;;;;;;;;19.70;58.70;;;;;;5039563;28;997;-68
2023/02/07 00:04:40;;;;;;;;;;;19.70;58.70;;;;;;5039678;28;1241;-69
2023/02/07 00:07:05;;;;;;;;;;;19.60;58.70;;;;;;5037639;28;823;-69
2023/02/07 00:09:30;;;;;;;;;;;19.60;58.80;;;;;;5038550;28;1262;-69
2023/02/07 00:11:56;;;;;;;;;;;19.60;58.80;;;;;;5040728;28;1898;-69
2023/02/07 00:14:21;;;;;;;;;;;19.60;58.90;;;;;;5040303;28;1254;-69
2023/02/07 00:16:47;;;;;;;;;;;19.50;59.40;;;;;;5038674;28;899;-73
2023/02/07 00:19:13;;;;;;;;;;;19.50;58.90;;;;;;5039994;28;1259;-69
2023/02/07 00:21:38;;;;;;;;;;;19.50;59.00;;;;;;5055392;28;1160;-68
2023/02/07 00:24:04;;;;;;;;;;;19.50;59.10;;;;;;5039043;28;786;-69
2023/02/07 00:26:29;;;;;;;;;;;19.50;59.10;;;;;;5025307;28;1220;-69
2023/02/07 00:28:55;;;;;;;;;;;19.50;59.10;;;;;;5024712;28;1795;-69
2023/02/07 00:31:22;;;;;;;;;;;19.40;59.10;;;;;;5040160;28;1906;-69
2023/02/07 00:33:47;;;;;;;;;;;19.40;59.10;;;;;;5040238;28;918;-69
2023/02/07 00:36:14;;;;;;;;;;;19.40;59.10;;;;;;5040608;28;1192;-70
2023/02/07 00:38:39;;;;;;;;;;;19.40;59.20;;;;;;5043108;28;1364;-69
2023/02/07 00:41:05;;;;;;;;;;;19.40;59.30;;;;;;5052691;28;863;-70
2023/02/07 00:43:30;;;;;;;;;;;19.30;59.20;;;;;;5053717;28;868;-70
2023/02/07 00:45:58;;;;;;;;;;;19.30;59.30;;;;;;5052686;28;838;-71
2023/02/07 00:48:24;;;;;;;;;;;19.30;59.30;;;;;;5040274;28;755;-70
2023/02/07 00:50:49;;;;;;;;;;;19.30;59.30;;;;;;5036830;28;1902;-69
2023/02/07 00:53:15;;;;;;;;;;;19.30;59.40;;;;;;5039260;28;848;-69
2023/02/07 00:55:40;;;;;;;;;;;19.30;59.40;;;;;;5037068;28;892;-68
2023/02/07 00:58:05;;;;;;;;;;;19.20;59.40;;;;;;5040141;28;864;-69
2023/02/07 01:00:31;;;;;;;;;;;19.20;59.40;;;;;;5039141;28;1254;-69
2023/02/07 01:02:56;;;;;;;;;;;19.20;59.50;;;;;;5039911;28;864;-69
2023/02/07 01:05:22;;;;;;;;;;;19.20;59.40;;;;;;5037957;28;1246;-68
2023/02/07 01:07:47;;;;;;;;;;;19.20;59.60;;;;;;5056831;28;939;-69
2023/02/07 01:10:13;;;;;;;;;;;19.20;59.50;;;;;;5037469;28;1298;-71
2023/02/07 01:12:38;;;;;;;;;;;19.10;59.50;;;;;;5037844;28;1970;-69
2023/02/07 01:15:06;;;;;;;;;;;19.10;59.60;;;;;;5038585;28;1034;-69
2023/02/07 01:17:31;;;;;;;;;;;19.10;59.60;;;;;;5039852;28;845;-70
2023/02/07 01:19:57;;;;;;;;;;;19.10;59.60;;;;;;5038958;28;1310;-70
2023/02/07 01:22:23;;;;;;;;;;;19.10;59.60;;;;;;5039308;28;886;-69
2023/02/07 01:24:48;;;;;;;;;;;19.10;59.60;;;;;;5030252;28;882;-70
2023/02/07 01:27:14;;;;;;;;;;;19.10;59.70;;;;;;5023753;28;902;-69
2023/02/07 01:29:39;;;;;;;;;;;19.00;59.60;;;;;;5039456;28;1264;-69
2023/02/07 01:32:05;;;;;;;;;;;19.00;59.60;;;;;;5038368;28;1922;-68
2023/02/07 01:34:30;;;;;;;;;;;19.00;59.60;;;;;;5037389;28;1305;-69
2023/02/07 01:36:56;;;;;;;;;;;19.00;59.70;;;;;;5040722;28;837;-69
2023/02/07 01:39:21;;;;;;;;;;;19.00;59.70;;;;;;5037030;28;1253;-68
2023/02/07 01:41:47;;;;;;;;;;;19.00;59.70;;;;;;5040267;28;919;-69
2023/02/07 01:44:21;;;;;;;;;;;19.00;59.70;;;;;;5040150;28;922;-71
2023/02/07 01:46:47;;;;;;;;;;;19.00;59.80;;;;;;5037576;28;1324;-69
2023/02/07 01:49:12;;;;;;;;;;;18.90;59.70;;;;;;5039884;28;1278;-69
2023/02/07 01:51:39;;;;;;;;;;;18.90;59.80;;;;;;5036449;28;1903;-69
2023/02/07 01:54:05;;;;;;;;;;;18.90;59.80;;;;;;5024712;28;903;-71
2023/02/07 01:56:31;;;;;;;;;;;18.90;59.80;;;;;;5053692;28;911;-70
2023/02/07 01:58:57;;;;;;;;;;;18.90;59.80;;;;;;5035895;28;1266;-71
2023/02/07 02:01:23;;;;;;;;;;;18.90;59.90;;;;;;5027967;28;879;-68
2023/02/07 02:03:49;;;;;;;;;;;18.90;59.80;;;;;;5024326;28;953;-69
2023/02/07 02:06:14;;;;;;;;;;;18.90;59.90;;;;;;5037498;28;864;-68
2023/02/07 02:08:40;;;;;;;;;;;18.90;59.90;;;;;;5020290;28;1291;-68
2023/02/07 02:11:09;;;;;;;;;;;18.80;59.90;;;;;;5039131;28;1906;-70
2023/02/07 02:13:41;;;;;;;;;;;18.80;59.90;;;;;;5017330;28;882;-69
2023/02/07 02:16:10;;;;;;;;;;;18.80;59.90;;;;;;5036608;28;1290;-69
2023/02/07 02:18:51;;;;;;;;;;;18.80;59.90;;;;;;5053163;28;1262;-71
2023/02/07 02:21:26;;;;;;;;;;;18.80;59.90;;;;;;5039728;28;828;-69
2023/02/07 02:24:07;;;;;;;;;;;18.80;59.90;;;;;;5021581;28;948;-69
2023/02/07 02:27:10;;;;;;;;;;;18.80;60.00;;;;;;5040266;28;880;-70
2023/02/07 02:29:39;;;;;;;;;;;18.80;60.00;;;;;;4941330;29;1509;-71
2023/02/07 02:32:13;;;;;;;;;;;18.70;60.00;;;;;;4944717;29;1970;-70
2023/02/07 02:34:51;;;;;;;;;;;18.70;60.00;;;;;;4979132;28;1017;-71
2023/02/07 02:37:35;;;;;;;;;;;18.70;60.10;;;;;;5051638;28;1002;-69
2023/02/07 02:40:05;;;;;;;;;;;18.70;60.10;;;;;;5019844;28;1268;-69
2023/02/07 02:42:41;;;;;;;;;;;18.70;60.10;;;;;;5023328;28;883;-71
2023/02/07 02:45:14;;;;;;;;;;;18.70;60.20;;;;;;5040360;28;1275;-70
2023/02/07 02:47:40;;;;;;;;;;;18.70;60.20;;;;;;5022763;28;1131;-69
2023/02/07 02:50:09;;;;;;;;;;;18.70;60.30;;;;;;5010404;28;1341;-69
2023/02/07 02:52:34;;;;;;;;;;;18.70;60.30;;;;;;5043436;28;1973;-69
2023/02/07 02:55:00;;;;;;;;;;;18.60;60.20;;;;;;5034766;28;889;-69
2023/02/07 02:57:50;;;;;;;;;;;18.60;60.30;;;;;;5037025;28;903;-69
2023/02/07 03:00:35;;;;;;;;;;;18.60;60.20;;;;;;5035609;28;1388;-69
2023/02/07 03:03:00;;;;;;;;;;;18.60;60.30;;;;;;5052520;28;796;-69
2023/02/07 03:05:41;;;;;;;;;;;18.60;60.30;;;;;;5039715;28;1272;-69
2023/02/07 03:08:18;;;;;;;;;;;18.60;60.40;;;;;;5040181;28;895;-69
2023/02/07 03:10:54;;;;;;;;;;;18.60;60.40;;;;;;5032364;28;1961;-69
2023/02/07 03:13:20;;;;;;;;;;;18.60;60.40;;;;;;5053645;28;884;-70
2023/02/07 03:15:45;;;;;;;;;;;18.60;60.50;;;;;;5040453;28;1264;-69
2023/02/07 03:18:29;;;;;;;;;;;18.60;60.40;;;;;;5043046;28;815;-69
2023/02/07 03:21:00;;;;;;;;;;;18.60;60.50;;;;;;5041343;28;1849;-69
2023/02/07 03:23:25;;;;;;;;;;;18.60;60.50;;;;;;5027018;28;851;-69
2023/02/07 03:25:51;;;;;;;;;;;18.60;60.50;;;;;;5024606;28;1172;-69
2023/02/07 03:28:17;;;;;;;;;;;18.60;60.50;;;;;;5033046;28;909;-70
2023/02/07 03:30:44;;;;;;;;;;;18.60;60.50;;;;;;5055270;28;1906;-70
2023/02/07 03:33:10;;;;;;;;;;;18.50;60.50;;;;;;5027252;28;811;-69
2023/02/07 03:35:46;;;;;;;;;;;18.50;60.50;;;;;;5046953;28;1501;-69
2023/02/07 03:38:11;;;;;;;;;;;18.50;60.50;;;;;;5062713;28;863;-70
2023/02/07 03:40:38;;;;;;;;;;;18.50;60.60;;;;;;5055221;28;1373;-69
2023/02/07 03:43:05;;;;;;;;;;;18.50;60.60;;;;;;5024766;28;1480;-70
2023/02/07 03:45:31;;;;;;;;;;;18.50;60.60;;;;;;5032039;28;1343;-70
2023/02/07 03:47:56;;;;;;;;;;;18.50;60.60;;;;;;5056610;28;830;-70
2023/02/07 03:50:21;;;;;;;;;;;18.50;60.60;;;;;;5038995;28;1408;-70
2023/02/07 03:52:47;;;;;;;;;;;18.50;61.10;;;;;;5039111;28;1953;-70
2023/02/07 03:55:13;;;;;;;;;;;18.60;61.50;;;;;;5026445;28;835;-70
2023/02/07 03:57:38;;;;;;;;;;;18.60;61.20;;;;;;5041534;28;1175;-71
2023/02/07 04:00:04;;;;;;;;;;;18.60;61.30;;;;;;5042018;28;1431;-70
2023/02/07 04:02:30;;;;;;;;;;;18.60;61.40;;;;;;5024187;28;894;-71
2023/02/07 04:04:55;;;;;;;;;;;18.60;61.60;;;;;;5015275;28;1382;-70
2023/02/07 04:07:21;;;;;;;;;;;18.70;61.60;;;;;;5040368;28;817;-70
2023/02/07 04:09:46;;;;;;;;;;;18.70;61.70;;;;;;5038549;28;1288;-69
2023/02/07 04:12:11;;;;;;;;;;;18.60;61.50;;;;;;5038991;28;1898;-71
2023/02/07 04:14:37;;;;;;;;;;;18.60;61.50;;;;;;5042016;28;1262;-71
2023/02/07 04:17:02;;;;;;;;;;;18.60;61.50;;;;;;5041275;28;1015;-69
2023/02/07 04:19:28;;;;;;;;;;;18.60;61.50;;;;;;5039147;28;1277;-71
2023/02/07 04:21:53;;;;;;;;;;;18.60;61.50;;;;;;5042688;28;882;-71
2023/02/07 04:24:19;;;;;;;;;;;18.60;61.60;;;;;;5037619;28;1065;-70
2023/02/07 04:26:44;;;;;;;;;;;18.60;61.60;;;;;;5039019;28;861;-71
2023/02/07 04:29:10;;;;;;;;;;;18.60;61.60;;;;;;5038267;28;1365;-69
2023/02/07 04:31:36;;;;;;;;;;;18.60;61.70;;;;;;5039912;28;1977;-71
2023/02/07 04:34:02;;;;;;;;;;;18.60;61.70;;;;;;5038249;28;890;-69
2023/02/07 04:36:28;;;;;;;;;;;18.60;61.80;;;;;;5040628;28;1380;-70
2023/02/07 04:38:54;;;;;;;;;;;18.60;61.90;;;;;;5039492;28;1256;-70
2023/02/07 04:41:19;;;;;;;;;;;18.60;61.90;;;;;;5046104;28;891;-72
2023/02/07 04:43:45;;;;;;;;;;;18.60;61.90;;;;;;5042951;28;796;-69
2023/02/07 04:46:10;;;;;;;;;;;18.60;62.40;;;;;;5037257;28;974;-69
2023/02/07 04:48:38;;;;;;;;;;;18.60;62.20;;;;;;5039624;28;1249;-71
2023/02/07 04:51:04;;;;;;;;;;;18.60;62.10;;;;;;5039642;28;1901;-71
2023/02/07 04:53:30;;;;;;;;;;;18.60;62.10;;;;;;5030896;28;983;-71
2023/02/07 04:55:55;;;;;;;;;;;18.60;62.10;;;;;;5038165;28;1030;-69
2023/02/07 04:58:21;;;;;;;;;;;18.60;62.10;;;;;;5055832;28;861;-70
2023/02/07 05:00:46;;;;;;;;;;;18.60;62.10;;;;;;5037915;28;1327;-71
2023/02/07 05:03:12;;;;;;;;;;;18.60;62.10;;;;;;5022554;28;1295;-70
2023/02/07 05:05:38;;;;;;;;;;;18.60;62.20;;;;;;5030088;28;970;-71
2023/02/07 05:08:04;;;;;;;;;;;18.60;62.30;;;;;;5021712;28;890;-71
2023/02/07 05:10:29;;;;;;;;;;;18.60;62.30;;;;;;5038509;28;1268;-70
2023/02/07 05:12:55;;;;;;;;;;;18.60;62.40;;;;;;5034639;28;5098;-70
2023/02/07 05:15:20;;;;;;;;;;;18.60;62.30;;;;;;5038817;28;1254;-71
2023/02/07 05:17:46;;;;;;;;;;;18.70;62.30;;;;;;5031348;28;1308;-71
2023/02/07 05:20:11;;;;;;;;;;;18.70;62.40;;;;;;5038949;28;1277;-70
2023/02/07 05:22:37;;;;;;;;;;;18.80;62.20;;;;;;5039857;28;864;-70
2023/02/07 05:25:02;;;;;;;;;;;18.80;62.10;;;;;;5038701;28;836;-70
2023/02/07 05:27:28;;;;;;;;;;;18.90;62.00;;;;;;5037383;28;1030;-70
2023/02/07 05:29:53;;;;;;;;;;;18.90;62.00;;;;;;5040911;28;1255;-70
2023/02/07 05:35:03;;;;;;;;;;;19.00;61.70;;;;;;5035855;28;1022;-70
2023/02/07 05:37:28;;;;;;;;;;;19.10;61.80;;;;;;5054144;28;1045;-69
2023/02/07 05:39:53;;;;;;;;;;;19.10;61.60;;;;;;5025741;28;1273;-70
2023/02/07 05:42:19;;;;;;;;;;;19.30;61.50;;;;;;5041157;28;925;-70
2023/02/07 05:44:44;;;;;;;;;;;19.40;61.30;;;;;;5039715;28;880;-70
2023/02/07 05:47:10;;;;;;;;;;;19.60;60.80;;;;;;5041212;28;813;-70
2023/02/07 05:49:36;;;;;;;;;;;19.80;60.20;;;;;;5037234;28;1368;-70
2023/02/07 05:52:01;;;;;;;;;;;20.00;59.80;;;;;;5039476;28;1969;-70
2023/02/07 05:54:27;;;;;;;;;;;20.20;59.40;;;;;;5035913;28;997;-70
2023/02/07 05:56:52;;;;;;;;;;;20.30;59.00;;;;;;5037406;28;1033;-70
2023/02/07 05:59:18;;;;;;;;;;;20.50;58.70;;;;;;5023063;28;1460;-70
2023/02/07 06:01:43;;;;;;;;;;;20.60;58.50;;;;;;5052520;28;827;-70
2023/02/07 06:04:09;;;;;;;;;;;20.70;58.20;;;;;;5038234;28;1263;-70
2023/02/07 06:06:34;;;;;;;;;;;20.80;57.90;;;;;;5035020;28;882;-70
2023/02/07 06:09:02;;;;;;;;;;;20.90;57.70;;;;;;5040149;28;1406;-70
2023/02/07 06:11:28;;;;;;;;;;;21.00;57.40;;;;;;5022640;28;1898;-70
2023/02/07 06:13:53;;;;;;;;;;;21.10;57.20;;;;;;5036572;28;862;-69
2023/02/07 06:16:18;;;;;;;;;;;21.10;57.00;;;;;;5038714;28;1260;-70
2023/02/07 06:18:44;;;;;;;;;;;21.20;56.90;;;;;;5037695;28;1268;-70
2023/02/07 06:21:09;;;;;;;;;;;21.20;56.90;;;;;;5029721;28;1269;-69
2023/02/07 06:23:35;;;;;;;;;;;21.20;56.90;;;;;;5038235;28;887;-70
2023/02/07 06:26:00;;;;;;;;;;;21.20;56.90;;;;;;5036821;28;1108;-70
2023/02/07 06:28:26;;;;;;;;;;;21.20;56.90;;;;;;5037491;28;867;-69
2023/02/07 06:30:52;;;;;;;;;;;21.20;57.00;;;;;;5035606;28;1902;-70
2023/02/07 06:33:17;;;;;;;;;;;21.20;57.00;;;;;;5022535;28;930;-70
2023/02/07 06:35:46;;;;;;;;;;;21.20;57.10;;;;;;5038355;28;1305;-70
2023/02/07 06:38:12;;;;;;;;;;;21.20;57.20;;;;;;5026403;28;883;-70
2023/02/07 06:40:38;;;;;;;;;;;21.10;57.20;;;;;;5037755;28;1251;-69
2023/02/07 06:43:03;;;;;;;;;;;21.10;57.30;;;;;;5037453;28;2044;-69
2023/02/07 06:45:28;;;;;;;;;;;21.10;57.40;;;;;;5033383;28;2088;-71
2023/02/07 06:47:54;;;;;;;;;;;21.10;57.60;;;;;;5038098;28;1240;-72
2023/02/07 06:50:20;;;;;;;;;;;21.00;57.50;;;;;;5044423;28;1755;-72
2023/02/07 06:52:45;;;;;;;;;;;21.00;57.70;;;;;;5044383;28;1910;-72
2023/02/07 06:55:11;;;;;;;;;;;21.00;57.80;;;;;;5043529;28;859;-72
2023/02/07 06:57:36;;;;;;;;;;;21.00;57.80;;;;;;5041323;28;876;-71
2023/02/07 07:00:03;;;;;;;;;;;20.90;57.80;;;;;;5042045;28;1228;-72
2023/02/07 07:02:28;;;;;;;;;;;20.90;57.90;;;;;;5045826;28;864;-71
2023/02/07 07:04:54;;;;;;;;;;;20.90;58.00;;;;;;5045772;28;1258;-71
2023/02/07 07:07:22;;;;;;;;;;;20.90;58.10;;;;;;5041943;28;878;-71
2023/02/07 07:09:47;;;;;;;;;;;20.80;58.20;;;;;;5045225;28;1427;-71
2023/02/07 07:12:13;;;;;;;;;;;20.80;58.70;;;;;;5045054;28;1963;-71
2023/02/07 07:14:38;;;;;;;;;;;20.80;58.80;;;;;;5033448;28;1258;-70
2023/02/07 07:17:04;;;;;;;;;;;20.70;58.80;;;;;;5042087;28;871;-69
2023/02/07 07:19:30;;;;;;;;;;;20.70;58.80;;;;;;5039989;28;1275;-70
2023/02/07 07:21:55;;;;;;;;;;;20.70;58.90;;;;;;5042429;28;1420;-69
2023/02/07 07:24:21;;;;;;;;;;;20.60;58.90;;;;;;5042057;28;929;-69
2023/02/07 07:26:46;;;;;;;;;;;20.70;59.10;;;;;;5042546;28;880;-70
2023/02/07 07:29:12;;;;;;;;;;;20.60;59.10;;;;;;5055711;28;1302;-70
2023/02/07 07:31:37;;;;;;;;;;;20.60;59.30;;;;;;5039679;28;1964;-70
2023/02/07 07:34:02;;;;;;;;;;;20.50;59.30;;;;;;5041254;28;788;-70
2023/02/07 07:36:28;;;;;;;;;;;20.50;59.40;;;;;;5042498;28;1254;-69
2023/02/07 07:38:53;;;;;;;;;;;20.50;59.50;;;;;;5057500;28;1353;-69
2023/02/07 07:41:19;;;;;;;;;;;20.50;59.70;;;;;;5027232;28;831;-69
2023/02/07 07:43:44;;;;;;;;;;;20.40;59.70;;;;;;5040976;28;875;-69
2023/02/07 07:46:11;;;;;;;;;;;20.40;59.80;;;;;;5040575;28;864;-69
2023/02/07 07:48:36;;;;;;;;;;;20.40;59.80;;;;;;5024445;28;1260;-69
2023/02/07 07:51:02;;;;;;;;;;;20.30;60.00;;;;;;5039987;28;1898;-69
2023/02/07 07:53:27;;;;;;;;;;;20.30;60.10;;;;;;5039884;28;2010;-69
2023/02/07 07:55:54;;;;;;;;;;;20.30;60.10;;;;;;5045446;28;2003;-69
2023/02/07 07:58:19;;;;;;;;;;;20.30;60.20;;;;;;5032015;28;1662;-70
2023/02/07 08:00:46;;;;;;;;;;;20.30;60.20;;;;;;5042068;28;1360;-70
2023/02/07 08:03:12;;;;;;;;;;;20.20;60.60;;;;;;5025085;28;1240;-70
2023/02/07 08:05:38;;;;;;;;;;;20.20;60.60;;;;;;5039930;28;914;-69
2023/02/07 08:08:03;;;;;;;;;;;20.20;60.80;;;;;;5024795;28;824;-69
2023/02/07 08:10:29;;;;;;;;;;;20.20;60.80;;;;;;5037554;28;1310;-69
2023/02/07 08:12:54;;;;;;;;;;;20.20;60.90;;;;;;5038327;28;1894;-69
2023/02/07 08:15:20;;;;;;;;;;;20.10;61.00;;;;;;5039580;28;1306;-70
2023/02/07 08:17:45;;;;;;;;;;;20.10;61.10;;;;;;5042065;28;1285;-68
2023/02/07 08:20:11;;;;;;;;;;;20.10;61.10;;;;;;5037754;28;1347;-69
2023/02/07 08:22:37;;;;;;;;;;;20.10;61.20;;;;;;5039863;28;868;-70
2023/02/07 08:25:02;;;;;;;;;;;20.00;61.20;;;;;;5040810;28;1475;-69
2023/02/07 08:27:28;;;;;;;;;;;20.00;61.30;;;;;;5027306;28;848;-69
2023/02/07 08:29:53;;;;;;;;;;;20.00;61.30;;;;;;5039228;28;1273;-69
2023/02/07 08:32:19;;;;;;;;;;;20.00;61.50;;;;;;5038810;28;1898;-69
2023/02/07 08:34:44;;;;;;;;;;;20.00;61.50;;;;;;5019243;28;5145;-70
2023/02/07 08:37:10;;;;;;;;;;;20.00;61.50;;;;;;5036910;28;915;-70
2023/02/07 08:39:35;;;;;;;;;;;20.00;61.80;;;;;;5039627;28;1390;-70
2023/02/07 08:42:01;;;;;;;;;;;20.00;61.80;;;;;;5039929;28;863;-69
2023/02/07 08:44:27;;;;;;;;;;;20.00;61.70;;;;;;5038327;28;877;-69
2023/02/07 08:46:52;;;;;;;;;;;20.00;61.70;;;;;;5037688;28;843;-70
2023/02/07 08:49:18;;;;;;;;;;;20.00;61.70;;;;;;5039077;28;1324;-69
2023/02/07 08:51:43;;;;;;;;;;;20.00;61.60;;;;;;5039947;28;1910;-70
2023/02/07 08:54:09;;;;;;;;;;;20.00;61.60;;;;;;5040305;28;845;-69
2023/02/07 08:56:34;;;;;;;;;;;20.00;61.60;;;;;;5037097;28;2116;-70
2023/02/07 08:58:59;;;;;;;;;;;20.00;61.60;;;;;;5040186;28;1440;-69
2023/02/07 09:01:25;;;;;;;;;;;20.00;61.60;;;;;;5041731;28;1370;-69
2023/02/07 09:03:55;;;;;;;;;;;20.00;61.60;;;;;;5038567;28;1272;-69
2023/02/07 09:06:21;;;;;;;;;;;20.00;61.60;;;;;;5035728;28;898;-69
2023/02/07 09:08:46;;;;;;;;;;;20.00;61.60;;;;;;5038931;28;1341;-69
2023/02/07 09:11:12;;;;;;;;;;;20.00;61.60;;;;;;5037829;28;1947;-69
2023/02/07 09:13:37;;;;;;;;;;;20.00;61.60;;;;;;5037768;28;2477;-69
2023/02/07 09:16:03;;;;;;;;;;;20.00;61.50;;;;;;5039798;28;1480;-69
2023/02/07 09:18:29;;;;;;;;;;;20.00;61.60;;;;;;5039306;28;1537;-70
2023/02/07 09:20:55;;;;;;;;;;;20.00;61.60;;;;;;5029583;28;1491;-68
2023/02/07 09:23:20;;;;;;;;;;;20.00;61.50;;;;;;5037286;28;1585;-69
2023/02/07 09:25:46;;;;;;;;;;;20.00;61.50;;;;;;5036233;28;830;-70
2023/02/07 09:28:12;;;;;;;;;;;20.00;61.40;;;;;;5038665;28;845;-69
2023/02/07 09:30:41;;;;;;;;;;;20.00;61.40;;;;;;5054819;28;1270;-69
2023/02/07 09:33:07;;;;;;;;;;;20.00;61.40;;;;;;5053241;28;1938;-69
2023/02/07 09:35:37;;;;;;;;;;;20.00;61.40;;;;;;5038421;28;1321;-69
2023/02/07 09:38:02;;;;;;;;;;;20.00;61.30;;;;;;5038700;28;1327;-69
2023/02/07 09:40:27;;;;;;;;;;;20.00;61.40;;;;;;5036074;28;1273;-69
2023/02/07 09:42:57;;;;;;;;;;;20.00;61.40;;;;;;5054960;28;2581;-69
2023/02/07 09:45:24;;;;;;;;;;;20.00;61.40;;;;;;5041922;28;1502;-68
2023/02/07 09:47:50;;;;;;;;;;;20.00;61.40;;;;;;5024578;28;1531;-69
2023/02/07 09:50:25;;;;;;;;;;;20.00;61.50;;;;;;5024692;28;1306;-68
2023/02/07 09:52:57;;;;;;;;;;;20.00;61.70;;;;;;5024308;28;1971;-69
2023/02/07 09:55:27;;;;;;;;;;;20.00;61.80;;;;;;5023324;28;843;-69
2023/02/07 09:58:12;;;;;;;;;;;20.00;61.80;;;;;;5053622;28;1017;-69
2023/02/07 10:00:38;;;;;;;;;;;20.00;61.80;;;;;;5033378;28;1226;-69
2023/02/07 10:03:14;;;;;;;;;;;19.90;61.70;;;;;;5037978;28;1282;-69
2023/02/07 10:05:44;;;;;;;;;;;20.00;61.80;;;;;;5053302;28;1097;-69
2023/02/07 10:08:14;;;;;;;;;;;19.90;61.80;;;;;;5024407;28;844;-69
2023/02/07 10:10:46;;;;;;;;;;;19.90;61.90;;;;;;5037049;28;1352;-69
2023/02/07 10:13:23;;;;;;;;;;;19.90;61.90;;;;;;5023068;28;1961;-69
2023/02/07 10:16:08;;;;;;;;;;;19.90;62.00;;;;;;5039644;28;1263;-68
2023/02/07 10:18:39;;;;;;;;;;;19.90;62.00;;;;;;5051476;28;1207;-68
2023/02/07 10:21:09;;;;;;;;;;;19.80;62.00;;;;;;5052182;28;1101;-69
2023/02/07 10:24:04;;;;;;;;;;;19.90;62.10;;;;;;5056673;28;919;-70
2023/02/07 10:26:36;;;;;;;;;;;19.80;62.10;;;;;;4986522;28;1102;-69
2023/02/07 10:29:20;;;;;;;;;;;19.80;62.20;;;;;;5038481;28;1285;-70
2023/02/07 10:31:46;;;;;;;;;;;19.80;62.20;;;;;;5039433;28;1959;-70
2023/02/07 10:34:13;;;;;;;;;;;19.80;62.20;;;;;;5059002;28;915;-70
2023/02/07 10:36:39;;;;;;;;;;;19.80;62.30;;;;;;5055899;28;930;-70
2023/02/07 10:39:06;;;;;;;;;;;19.80;62.30;;;;;;5057861;28;1241;-69
2023/02/07 10:41:41;;;;;;;;;;;19.80;62.40;;;;;;5024805;28;1307;-69
2023/02/07 10:44:16;;;;;;;;;;;19.70;62.30;;;;;;5028861;28;2144;-69
2023/02/07 10:46:42;;;;;;;;;;;19.80;62.60;;;;;;5044702;28;1353;-69
2023/02/07 10:49:23;;;;;;;;;;;19.70;62.40;;;;;;5058515;28;1608;-70
2023/02/07 10:51:49;;;;;;;;;;;19.70;62.40;;;;;;5029666;28;1910;-71
2023/02/07 10:54:15;;;;;;;;;;;19.70;62.80;;;;;;5028693;28;847;-69
2023/02/07 10:56:45;;;;;;;;;;;19.70;62.50;;;;;;5040590;28;1167;-69
2023/02/07 10:59:29;;;;;;;;;;;19.70;62.50;;;;;;5040616;28;1272;-70
2023/02/07 11:01:55;;;;;;;;;;;19.70;62.50;;;;;;5039318;28;2181;-69
2023/02/07 11:04:21;;;;;;;;;;;19.70;62.60;;;;;;5033804;28;2470;-69
2023/02/07 11:06:47;;;;;;;;;;;19.70;62.60;;;;;;5042752;28;1253;-69
2023/02/07 11:09:19;;;;;;;;;;;19.60;62.50;;;;;;5056162;28;1396;-69
2023/02/07 11:11:51;;;;;;;;;;;19.60;62.70;;;;;;5028763;28;1906;-68
2023/02/07 11:14:18;;;;;;;;;;;19.60;62.70;;;;;;5026824;28;2190;-69
2023/02/07 11:16:44;;;;;;;;;;;19.60;62.80;;;;;;5043382;28;1410;-69
2023/02/07 11:19:13;;;;;;;;;;;19.60;62.90;;;;;;5025081;28;2114;-69
2023/02/07 11:21:39;;;;;;;;;;;19.60;62.90;;;;;;5058803;28;968;-69
2023/02/07 11:24:06;;;;;;;;;;;19.60;63.00;;;;;;5015745;28;2240;-70
2023/02/07 11:26:32;;;;;;;;;;;19.60;63.10;;;;;;5040956;28;1565;-70
2023/02/07 11:29:17;;;;;;;;;;;19.60;63.30;;;;;;5054099;28;1693;-68
2023/02/07 11:31:43;;;;;;;;;;;19.50;63.20;;;;;;5037979;28;1906;-68
2023/02/07 11:34:08;;;;;;;;;;;19.50;63.30;;;;;;5042168;28;800;-68
2023/02/07 11:36:34;;;;;;;;;;;19.50;63.20;;;;;;5048733;28;808;-68
2023/02/07 11:38:59;;;;;;;;;;;19.50;63.20;;;;;;5033857;28;1252;-69
2023/02/07 11:41:26;;;;;;;;;;;19.50;63.30;;;;;;5039305;28;859;-68
2023/02/07 11:44:15;;;;;;;;;;;19.50;63.30;;;;;;5054341;28;1208;-69
2023/02/07 11:46:41;;;;;;;;;;;19.50;63.50;;;;;;5037535;28;1429;-70
2023/02/07 11:49:16;;;;;;;;;;;19.50;63.50;;;;;;5041871;28;1345;-70
2023/02/07 11:51:42;;;;;;;;;;;19.50;63.00;;;;;;5020519;28;1883;-72
2023/02/07 11:54:08;;;;;;;;;;;19.40;58.50;;;;;;5025834;28;1046;-71
2023/02/07 11:56:37;;;;;;;;;;;19.30;51.70;;;;;;5026056;28;981;-71
2023/02/07 11:59:07;;;;;;;;;;;19.20;48.80;;;;;;5024845;28;1280;-71
2023/02/07 12:01:33;;;;;;;;;;;19.10;46.80;;;;;;5055539;28;829;-71
2023/02/07 12:03:59;;;;;;;;;;;19.00;47.30;;;;;;5042271;28;1251;-70
2023/02/07 12:06:37;;;;;;;;;;;18.90;48.60;;;;;;5041668;28;835;-69
2023/02/07 12:09:02;;;;;;;;;;;18.90;49.50;;;;;;5022768;28;1387;-69
2023/02/07 12:11:30;;;;;;;;;;;18.90;50.40;;;;;;5015299;28;1903;-70
2023/02/07 12:13:56;;;;;;;;;;;18.90;50.80;;;;;;5051696;28;972;-70
2023/02/07 12:16:32;;;;;;;;;;;18.90;51.40;;;;;;5040057;28;1392;-70
2023/02/07 12:19:03;;;;;;;;;;;18.90;52.20;;;;;;5053765;28;1312;-70
2023/02/07 12:21:30;;;;;;;;;;;18.90;52.70;;;;;;5055232;28;899;-70
2023/02/07 12:23:56;;;;;;;;;;;18.90;53.20;;;;;;5027573;28;1010;-70
2023/02/07 12:26:23;;;;;;;;;;;18.90;53.70;;;;;;5030978;28;1133;-70
2023/02/07 12:28:48;;;;;;;;;;;18.90;53.90;;;;;;5025758;28;1275;-70
2023/02/07 12:31:17;;;;;;;;;;;18.90;54.30;;;;;;5039936;28;1910;-70
2023/02/07 12:33:50;;;;;;;;;;;18.90;54.50;;;;;;5023011;28;903;-70
2023/02/07 12:36:19;;;;;;;;;;;18.90;54.80;;;;;;5013954;28;1401;-70
2023/02/07 12:38:46;;;;;;;;;;;18.90;55.00;;;;;;5042214;28;1357;-70
2023/02/07 12:41:14;;;;;;;;;;;18.90;55.20;;;;;;5023668;28;861;-70
2023/02/07 12:44:01;;;;;;;;;;;18.90;55.30;;;;;;5053051;28;845;-71
2023/02/07 12:46:35;;;;;;;;;;;18.90;55.50;;;;;;5051240;28;899;-70
2023/02/07 12:49:20;;;;;;;;;;;18.90;55.60;;;;;;5024271;28;1311;-70
2023/02/07 12:51:48;;;;;;;;;;;19.00;55.90;;;;;;5043148;28;1954;-70
2023/02/07 12:54:25;;;;;;;;;;;18.90;56.00;;;;;;5055050;28;1349;-70
2023/02/07 12:56:51;;;;;;;;;;;18.90;56.10;;;;;;5036959;28;955;-70
2023/02/07 12:59:29;;;;;;;;;;;18.90;56.20;;;;;;5038020;28;1366;-71
2023/02/07 13:02:13;;;;;;;;;;;18.90;56.30;;;;;;5037845;28;2174;-71
2023/02/07 13:05:00;;;;;;;;;;;19.00;56.50;;;;;;5036263;28;1496;-70
2023/02/07 13:07:31;;;;;;;;;;;19.00;56.60;;;;;;5076408;27;1330;-69
2023/02/07 13:10:06;;;;;;;;;;;19.00;56.70;;;;;;5077414;28;1287;-70
2023/02/07 13:12:38;;;;;;;;;;;18.90;56.70;;;;;;5076612;28;2556;-70
2023/02/07 13:15:25;;;;;;;;;;;18.90;56.80;;;;;;5084420;28;901;-70
2023/02/07 13:18:10;;;;;;;;;;;18.90;56.90;;;;;;5084662;28;907;-70
2023/02/07 13:20:36;;;;;;;;;;;18.90;57.00;;;;;;5083623;28;1378;-70
2023/02/07 13:23:02;;;;;;;;;;;18.90;57.10;;;;;;5074286;28;820;-70
2023/02/07 13:25:27;;;;;;;;;;;18.90;57.20;;;;;;5073007;28;1906;-70
2023/02/07 13:27:54;;;;;;;;;;;18.90;57.20;;;;;;5073624;28;958;-70
2023/02/07 13:30:19;;;;;;;;;;;18.90;57.30;;;;;;5066613;28;1433;-70
2023/02/07 13:32:45;;;;;;;;;;;18.90;57.40;;;;;;5073486;28;895;-70
2023/02/07 13:35:12;;;;;;;;;;;18.90;57.50;;;;;;5072052;28;1848;-70
2023/02/07 13:37:47;;;;;;;;;;;18.90;57.50;;;;;;5077420;28;876;-71
2023/02/07 13:40:31;;;;;;;;;;;18.80;57.50;;;;;;5072015;28;1267;-71
2023/02/07 13:43:05;;;;;;;;;;;18.80;57.60;;;;;;5074200;28;927;-71
2023/02/07 13:45:31;;;;;;;;;;;18.80;57.70;;;;;;5074579;28;1977;-71
2023/02/07 13:47:59;;;;;;;;;;;18.80;57.70;;;;;;5077255;28;875;-71
2023/02/07 13:50:39;;;;;;;;;;;18.80;57.80;;;;;;5073395;28;1276;-71
2023/02/07 13:53:10;;;;;;;;;;;18.80;57.90;;;;;;5082581;28;1162;-71
2023/02/07 13:55:39;;;;;;;;;;;18.80;57.90;;;;;;5074056;28;855;-71
2023/02/07 14:01:13;;;;;;;;;;;18.80;58.00;;;;;;5076544;28;1334;-71
2023/02/07 14:03:39;;;;;;;;;;;18.80;58.10;;;;;;5071123;28;886;-71
2023/02/07 14:06:14;;;;;;;;;;;18.80;58.10;;;;;;5072825;28;1947;-70
2023/02/07 14:08:41;;;;;;;;;;;18.70;58.10;;;;;;5070567;28;1289;-71
2023/02/07 14:11:39;;;;;;;;;;;18.70;58.20;;;;;;5071817;28;1387;-71
2023/02/07 14:14:05;;;;;;;;;;;18.70;58.30;;;;;;5072408;28;1445;-69
2023/02/07 14:16:49;;;;;;;;;;;18.70;58.30;;;;;;5074034;28;1347;-70
2023/02/07 14:19:16;;;;;;;;;;;18.70;58.40;;;;;;5059606;28;1292;-71
2023/02/07 14:21:42;;;;;;;;;;;18.70;58.40;;;;;;5056393;28;1135;-69
2023/02/07 14:24:07;;;;;;;;;;;18.70;58.50;;;;;;5058188;28;1204;-72
2023/02/07 14:26:36;;;;;;;;;;;18.70;58.50;;;;;;5058884;28;1953;-70
2023/02/07 14:29:21;;;;;;;;;;;18.70;58.60;;;;;;5061666;28;1916;-72
2023/02/07 14:31:47;;;;;;;;;;;18.60;58.50;;;;;;5062117;28;1221;-72
2023/02/07 14:34:13;;;;;;;;;;;18.60;58.60;;;;;;5057568;28;1614;-72
2023/02/07 14:36:39;;;;;;;;;;;18.60;58.60;;;;;;5059657;28;936;-72
2023/02/07 14:39:06;;;;;;;;;;;18.60;58.60;;;;;;5058279;28;1250;-70
2023/02/07 14:41:32;;;;;;;;;;;18.60;58.70;;;;;;5066486;28;820;-71
2023/02/07 14:43:58;;;;;;;;;;;18.60;58.70;;;;;;5057083;28;1453;-71
2023/02/07 14:46:28;;;;;;;;;;;18.60;58.80;;;;;;5060984;28;1898;-70